sensor_id;sensor_type;location;lat;lon;timestamp;temperature;humidity
27633;DHT22;15046;50.930;13.334;2023-02-15T00:01:38;0.20;99.90
27633;DHT22;15046;50.930;13.334;2023-02-15T00:04:06;0.10;99.90
27633;DHT22;15046;50.930;13.334;2023-02-15T00:06:32;0.10;99.90
27633;DHT22;15046;50.930;13.334;2023-02-15T00:08:58;0.10;99.90
27633;DHT22;15046;50.930;13.334;2023-02-15T00:11:24;0.10;99.90
27633;DHT22;15046;50.930;13.334;2023-02-15T00:14:25;0.10;99.90
27633;DHT22;15046;50.930;13.334;2023-02-15T00:16:52;0.10;99.90
27633;DHT22;15046;50.930;13.334;2023-02-15T00:19:19;0.10;99.90
27633;DHT22;15046;50.930;13.334;2023-02-15T00:21:48;0.10;99.90
27633;DHT22;15046;50.930;13.334;2023-02-15T00:24:16;0.00;99.90
27633;DHT22;15046;50.930;13.334;2023-02-15T00:26:43;0.00;99.90
27633;DHT22;15046;50.930;13.334;2023-02-15T00:29:10;0.00;99.90
27633;DHT22;15046;50.930;13.334;2023-02-15T00:31:36;0.00;99.90
27633;DHT22;15046;50.930;13.334;2023-02-15T00:34:07;0.00;99.90
27633;DHT22;15046;50.930;13.334;2023-02-15T00:36:33;-0.10;99.90
27633;DHT22;15046;50.930;13.334;2023-02-15T00:38:59;-0.10;99.90
27633;DHT22;15046;50.930;13.334;2023-02-15T00:41:25;-0.10;99.90
27633;DHT22;15046;50.930;13.334;2023-02-15T00:43:51;-0.10;99.90
27633;DHT22;15046;50.930;13.334;2023-02-15T00:46:17;-0.20;99.90
27633;DHT22;15046;50.930;13.334;2023-02-15T00:48:43;-0.20;99.90
27633;DHT22;15046;50.930;13.334;2023-02-15T00:51:09;-0.20;99.90
27633;DHT22;15046;50.930;13.334;2023-02-15T00:53:34;-0.20;99.90
27633;DHT22;15046;50.930;13.334;2023-02-15T00:56:00;-0.20;99.90
27633;DHT22;15046;50.930;13.334;2023-02-15T00:58:26;-0.20;99.90
27633;DHT22;15046;50.930;13.334;2023-02-15T01:00:52;-0.20;99.90
27633;DHT22;15046;50.930;13.334;2023-02-15T01:03:19;-0.20;99.90
27633;DHT22;15046;50.930;13.334;2023-02-15T01:05:47;-0.20;99.90
27633;DHT22;15046;50.930;13.334;2023-02-15T01:08:13;-0.30;99.90
27633;DHT22;15046;50.930;13.334;2023-02-15T01:10:39;-0.30;99.90
27633;DHT22;15046;50.930;13.334;2023-02-15T01:13:05;-0.30;99.90
27633;DHT22;15046;50.930;13.334;2023-02-15T01:15:34;-0.40;99.90
27633;DHT22;15046;50.930;13.334;2023-02-15T01:18:01;-0.40;99.90
27633;DHT22;15046;50.930;13.334;2023-02-15T01:20:28;-0.40;99.90
27633;DHT22;15046;50.930;13.334;2023-02-15T01:22:56;-0.50;99.90
27633;DHT22;15046;50.930;13.334;2023-02-15T01:25:23;-0.50;99.90
27633;DHT22;15046;50.930;13.334;2023-02-15T01:27:49;-0.50;99.90
27633;DHT22;15046;50.930;13.334;2023-02-15T01:30:16;-0.50;99.90
27633;DHT22;15046;50.930;13.334;2023-02-15T01:32:43;-0.50;99.90
27633;DHT22;15046;50.930;13.334;2023-02-15T01:35:10;-0.60;99.90
27633;DHT22;15046;50.930;13.334;2023-02-15T01:37:36;-0.60;99.90
27633;DHT22;15046;50.930;13.334;2023-02-15T01:40:07;-0.60;99.90
27633;DHT22;15046;50.930;13.334;2023-02-15T01:42:34;-0.60;99.90
27633;DHT22;15046;50.930;13.334;2023-02-15T01:45:02;-0.60;99.90
27633;DHT22;15046;50.930;13.334;2023-02-15T01:47:33;-0.60;99.90
27633;DHT22;15046;50.930;13.334;2023-02-15T01:50:12;-0.70;99.90
27633;DHT22;15046;50.930;13.334;2023-02-15T01:52:51;-0.70;99.90
27633;DHT22;15046;50.930;13.334;2023-02-15T01:55:18;-0.70;99.90
27633;DHT22;15046;50.930;13.334;2023-02-15T01:57:45;-0.70;99.90
27633;DHT22;15046;50.930;13.334;2023-02-15T02:00:14;-0.80;99.90
27633;DHT22;15046;50.930;13.334;2023-02-15T02:02:43;-0.80;99.90
27633;DHT22;15046;50.930;13.334;2023-02-15T02:05:11;-0.80;99.90
27633;DHT22;15046;50.930;13.334;2023-02-15T02:07:41;-0.90;99.90
27633;DHT22;15046;50.930;13.334;2023-02-15T02:10:11;-0.90;99.90
27633;DHT22;15046;50.930;13.334;2023-02-15T02:12:38;-0.90;99.90
27633;DHT22;15046;50.930;13.334;2023-02-15T02:15:06;-0.90;99.90
27633;DHT22;15046;50.930;13.334;2023-02-15T02:17:55;-1.00;99.90
27633;DHT22;15046;50.930;13.334;2023-02-15T02:32:10;-1.00;99.90
27633;DHT22;15046;50.930;13.334;2023-02-15T02:34:57;-1.10;99.90
27633;DHT22;15046;50.930;13.334;2023-02-15T02:43:35;-1.10;99.90
27633;DHT22;15046;50.930;13.334;2023-02-15T02:47:08;-1.00;99.90
27633;DHT22;15046;50.930;13.334;2023-02-15T02:49:01;-1.10;99.90
27633;DHT22;15046;50.930;13.334;2023-02-15T02:51:27;-1.00;99.90
27633;DHT22;15046;50.930;13.334;2023-02-15T02:53:59;-1.00;99.90
27633;DHT22;15046;50.930;13.334;2023-02-15T02:56:30;-1.00;99.90
27633;DHT22;15046;50.930;13.334;2023-02-15T03:01:39;-1.00;99.90
27633;DHT22;15046;50.930;13.334;2023-02-15T03:04:19;-1.00;99.90
27633;DHT22;15046;50.930;13.334;2023-02-15T03:06:55;-1.00;99.90
27633;DHT22;15046;50.930;13.334;2023-02-15T03:09:29;-1.00;99.90
27633;DHT22;15046;50.930;13.334;2023-02-15T03:12:49;-1.00;99.90
27633;DHT22;15046;50.930;13.334;2023-02-15T03:15:21;-1.00;99.90
27633;DHT22;15046;50.930;13.334;2023-02-15T03:17:55;-1.00;99.90
27633;DHT22;15046;50.930;13.334;2023-02-15T03:20:29;-1.00;99.90
27633;DHT22;15046;50.930;13.334;2023-02-15T03:23:02;-1.00;99.90
27633;DHT22;15046;50.930;13.334;2023-02-15T03:25:34;-1.00;99.90
27633;DHT22;15046;50.930;13.334;2023-02-15T03:28:11;-1.00;99.90
27633;DHT22;15046;50.930;13.334;2023-02-15T03:30:40;-1.00;99.90
27633;DHT22;15046;50.930;13.334;2023-02-15T03:33:08;-1.00;99.90
27633;DHT22;15046;50.930;13.334;2023-02-15T03:35:49;-1.00;99.90
27633;DHT22;15046;50.930;13.334;2023-02-15T03:38:22;-1.00;99.90
27633;DHT22;15046;50.930;13.334;2023-02-15T03:40:53;-1.10;99.90
27633;DHT22;15046;50.930;13.334;2023-02-15T03:43:56;-1.10;99.90
27633;DHT22;15046;50.930;13.334;2023-02-15T03:49:10;-1.20;99.90
27633;DHT22;15046;50.930;13.334;2023-02-15T03:51:40;-1.10;99.90
27633;DHT22;15046;50.930;13.334;2023-02-15T03:54:19;-1.20;99.90
27633;DHT22;15046;50.930;13.334;2023-02-15T03:57:06;-1.20;99.90
27633;DHT22;15046;50.930;13.334;2023-02-15T03:59:51;-1.20;99.90
27633;DHT22;15046;50.930;13.334;2023-02-15T04:05:16;-1.20;99.90
27633;DHT22;15046;50.930;13.334;2023-02-15T04:07:41;-1.20;99.90
27633;DHT22;15046;50.930;13.334;2023-02-15T04:10:07;-1.20;99.90
27633;DHT22;15046;50.930;13.334;2023-02-15T04:12:52;-1.20;99.90
27633;DHT22;15046;50.930;13.334;2023-02-15T04:15:17;-1.20;99.90
27633;DHT22;15046;50.930;13.334;2023-02-15T04:18:06;-1.20;99.90
27633;DHT22;15046;50.930;13.334;2023-02-15T04:20:31;-1.20;99.90
27633;DHT22;15046;50.930;13.334;2023-02-15T04:23:16;-1.20;99.90
27633;DHT22;15046;50.930;13.334;2023-02-15T04:26:03;-1.20;99.90
27633;DHT22;15046;50.930;13.334;2023-02-15T04:28:30;-1.20;99.90
27633;DHT22;15046;50.930;13.334;2023-02-15T04:30:55;-1.20;99.90
27633;DHT22;15046;50.930;13.334;2023-02-15T04:33:21;-1.20;99.90
27633;DHT22;15046;50.930;13.334;2023-02-15T04:35:48;-1.20;99.90
27633;DHT22;15046;50.930;13.334;2023-02-15T04:38:13;-1.20;99.90
27633;DHT22;15046;50.930;13.334;2023-02-15T04:40:40;-1.30;99.90
27633;DHT22;15046;50.930;13.334;2023-02-15T04:43:06;-1.20;99.90
27633;DHT22;15046;50.930;13.334;2023-02-15T04:45:32;-1.20;99.90
27633;DHT22;15046;50.930;13.334;2023-02-15T04:47:58;-1.20;99.90
27633;DHT22;15046;50.930;13.334;2023-02-15T04:50:23;-1.20;99.90
27633;DHT22;15046;50.930;13.334;2023-02-15T04:52:49;-1.20;99.90
27633;DHT22;15046;50.930;13.334;2023-02-15T04:55:15;-1.20;99.90
27633;DHT22;15046;50.930;13.334;2023-02-15T04:57:41;-1.20;99.90
27633;DHT22;15046;50.930;13.334;2023-02-15T05:00:07;-1.20;99.90
27633;DHT22;15046;50.930;13.334;2023-02-15T05:02:34;-1.20;99.90
27633;DHT22;15046;50.930;13.334;2023-02-15T05:05:00;-1.20;99.90
27633;DHT22;15046;50.930;13.334;2023-02-15T05:07:25;-1.20;99.90
27633;DHT22;15046;50.930;13.334;2023-02-15T05:09:51;-1.20;99.90
27633;DHT22;15046;50.930;13.334;2023-02-15T05:12:17;-1.20;99.90
27633;DHT22;15046;50.930;13.334;2023-02-15T05:14:43;-1.20;99.90
27633;DHT22;15046;50.930;13.334;2023-02-15T05:17:08;-1.30;99.90
27633;DHT22;15046;50.930;13.334;2023-02-15T05:19:34;-1.20;99.90
27633;DHT22;15046;50.930;13.334;2023-02-15T05:22:00;-1.30;99.90
27633;DHT22;15046;50.930;13.334;2023-02-15T05:24:26;-1.30;99.90
27633;DHT22;15046;50.930;13.334;2023-02-15T05:27:13;-1.30;99.90
27633;DHT22;15046;50.930;13.334;2023-02-15T05:29:57;-1.30;99.90
27633;DHT22;15046;50.930;13.334;2023-02-15T05:32:23;-1.20;99.90
27633;DHT22;15046;50.930;13.334;2023-02-15T05:34:49;-1.20;99.90
27633;DHT22;15046;50.930;13.334;2023-02-15T05:37:15;-1.20;99.90
27633;DHT22;15046;50.930;13.334;2023-02-15T05:39:41;-1.20;99.90
27633;DHT22;15046;50.930;13.334;2023-02-15T05:42:06;-1.30;99.90
27633;DHT22;15046;50.930;13.334;2023-02-15T05:44:32;-1.30;99.90
27633;DHT22;15046;50.930;13.334;2023-02-15T05:46:58;-1.30;99.90
27633;DHT22;15046;50.930;13.334;2023-02-15T05:49:24;-1.30;99.90
27633;DHT22;15046;50.930;13.334;2023-02-15T05:51:50;-1.20;99.90
27633;DHT22;15046;50.930;13.334;2023-02-15T05:54:15;-1.20;99.90
27633;DHT22;15046;50.930;13.334;2023-02-15T05:56:42;-1.20;99.90
27633;DHT22;15046;50.930;13.334;2023-02-15T05:59:08;-1.30;99.90
27633;DHT22;15046;50.930;13.334;2023-02-15T06:01:35;-1.30;99.90
27633;DHT22;15046;50.930;13.334;2023-02-15T06:04:01;-1.30;99.90
27633;DHT22;15046;50.930;13.334;2023-02-15T06:06:27;-1.30;99.90
27633;DHT22;15046;50.930;13.334;2023-02-15T06:08:52;-1.30;99.90
27633;DHT22;15046;50.930;13.334;2023-02-15T06:11:18;-1.30;99.90
27633;DHT22;15046;50.930;13.334;2023-02-15T06:13:44;-1.30;99.90
27633;DHT22;15046;50.930;13.334;2023-02-15T06:16:10;-1.30;99.90
27633;DHT22;15046;50.930;13.334;2023-02-15T06:18:36;-1.30;99.90
27633;DHT22;15046;50.930;13.334;2023-02-15T06:21:01;-1.40;99.90
27633;DHT22;15046;50.930;13.334;2023-02-15T06:23:28;-1.40;99.90
27633;DHT22;15046;50.930;13.334;2023-02-15T06:25:56;-1.40;99.90
27633;DHT22;15046;50.930;13.334;2023-02-15T06:28:21;-1.40;99.90
27633;DHT22;15046;50.930;13.334;2023-02-15T06:30:47;-1.40;99.90
27633;DHT22;15046;50.930;13.334;2023-02-15T06:33:13;-1.40;99.90
27633;DHT22;15046;50.930;13.334;2023-02-15T06:35:39;-1.40;99.90
27633;DHT22;15046;50.930;13.334;2023-02-15T06:38:04;-1.40;99.90
27633;DHT22;15046;50.930;13.334;2023-02-15T06:40:30;-1.40;99.90
27633;DHT22;15046;50.930;13.334;2023-02-15T06:42:56;-1.40;99.90
27633;DHT22;15046;50.930;13.334;2023-02-15T06:45:22;-1.50;99.90
27633;DHT22;15046;50.930;13.334;2023-02-15T06:47:48;-1.40;99.90
27633;DHT22;15046;50.930;13.334;2023-02-15T06:50:15;-1.40;99.90
27633;DHT22;15046;50.930;13.334;2023-02-15T06:52:41;-1.30;99.90
27633;DHT22;15046;50.930;13.334;2023-02-15T06:55:07;-1.30;99.90
27633;DHT22;15046;50.930;13.334;2023-02-15T06:57:33;-1.30;99.90
27633;DHT22;15046;50.930;13.334;2023-02-15T06:59:59;-1.20;99.90
27633;DHT22;15046;50.930;13.334;2023-02-15T07:02:25;-1.10;99.90
27633;DHT22;15046;50.930;13.334;2023-02-15T07:04:50;-1.10;99.90
27633;DHT22;15046;50.930;13.334;2023-02-15T07:07:16;-1.10;99.90
27633;DHT22;15046;50.930;13.334;2023-02-15T07:09:43;-1.10;99.90
27633;DHT22;15046;50.930;13.334;2023-02-15T07:12:10;-1.00;99.90
27633;DHT22;15046;50.930;13.334;2023-02-15T07:14:54;-1.00;99.90
27633;DHT22;15046;50.930;13.334;2023-02-15T07:17:20;-0.90;99.90
27633;DHT22;15046;50.930;13.334;2023-02-15T07:19:46;-0.80;99.90
27633;DHT22;15046;50.930;13.334;2023-02-15T07:22:11;-0.70;99.90
27633;DHT22;15046;50.930;13.334;2023-02-15T07:24:37;-0.50;99.90
27633;DHT22;15046;50.930;13.334;2023-02-15T07:27:03;-0.40;99.90
27633;DHT22;15046;50.930;13.334;2023-02-15T07:29:29;-0.30;99.90
27633;DHT22;15046;50.930;13.334;2023-02-15T07:31:56;-0.20;99.90
27633;DHT22;15046;50.930;13.334;2023-02-15T07:34:22;-0.10;99.90
27633;DHT22;15046;50.930;13.334;2023-02-15T07:36:50;0.00;99.90
27633;DHT22;15046;50.930;13.334;2023-02-15T07:39:16;0.00;99.90
27633;DHT22;15046;50.930;13.334;2023-02-15T07:41:42;0.10;99.90
27633;DHT22;15046;50.930;13.334;2023-02-15T07:44:14;0.10;99.90
27633;DHT22;15046;50.930;13.334;2023-02-15T07:46:41;0.20;99.90
27633;DHT22;15046;50.930;13.334;2023-02-15T07:49:07;0.20;99.90
27633;DHT22;15046;50.930;13.334;2023-02-15T07:51:33;0.20;99.90
27633;DHT22;15046;50.930;13.334;2023-02-15T07:53:59;0.30;99.90
27633;DHT22;15046;50.930;13.334;2023-02-15T07:56:25;0.30;99.90
27633;DHT22;15046;50.930;13.334;2023-02-15T07:58:51;0.40;99.90
27633;DHT22;15046;50.930;13.334;2023-02-15T08:03:49;0.70;99.90
27633;DHT22;15046;50.930;13.334;2023-02-15T08:06:17;0.80;99.90
27633;DHT22;15046;50.930;13.334;2023-02-15T08:08:43;0.90;99.90
27633;DHT22;15046;50.930;13.334;2023-02-15T08:13:59;1.10;99.90
27633;DHT22;15046;50.930;13.334;2023-02-15T08:21:39;1.30;99.90
27633;DHT22;15046;50.930;13.334;2023-02-15T08:24:07;1.30;99.90
27633;DHT22;15046;50.930;13.334;2023-02-15T08:26:33;1.30;99.90
27633;DHT22;15046;50.930;13.334;2023-02-15T08:29:00;1.40;99.90
27633;DHT22;15046;50.930;13.334;2023-02-15T08:31:26;1.50;99.90
27633;DHT22;15046;50.930;13.334;2023-02-15T08:33:54;1.70;99.90
27633;DHT22;15046;50.930;13.334;2023-02-15T08:36:23;1.80;99.90
27633;DHT22;15046;50.930;13.334;2023-02-15T08:38:49;1.90;99.90
27633;DHT22;15046;50.930;13.334;2023-02-15T08:41:18;2.00;99.90
27633;DHT22;15046;50.930;13.334;2023-02-15T08:43:45;2.20;99.90
27633;DHT22;15046;50.930;13.334;2023-02-15T08:46:13;2.40;99.90
27633;DHT22;15046;50.930;13.334;2023-02-15T08:48:40;2.50;99.90
27633;DHT22;15046;50.930;13.334;2023-02-15T08:51:11;2.70;99.90
27633;DHT22;15046;50.930;13.334;2023-02-15T08:53:42;2.80;99.90
27633;DHT22;15046;50.930;13.334;2023-02-15T08:56:09;2.90;99.90
27633;DHT22;15046;50.930;13.334;2023-02-15T08:58:35;3.10;99.90
27633;DHT22;15046;50.930;13.334;2023-02-15T09:01:01;3.10;99.90
27633;DHT22;15046;50.930;13.334;2023-02-15T09:03:31;3.20;99.90
27633;DHT22;15046;50.930;13.334;2023-02-15T09:05:58;3.40;99.90
27633;DHT22;15046;50.930;13.334;2023-02-15T09:08:25;3.40;99.90
27633;DHT22;15046;50.930;13.334;2023-02-15T09:10:51;3.40;99.90
27633;DHT22;15046;50.930;13.334;2023-02-15T09:13:18;3.40;99.90
27633;DHT22;15046;50.930;13.334;2023-02-15T09:15:44;3.50;99.90
27633;DHT22;15046;50.930;13.334;2023-02-15T09:18:09;3.50;99.90
27633;DHT22;15046;50.930;13.334;2023-02-15T09:20:36;3.70;99.90
27633;DHT22;15046;50.930;13.334;2023-02-15T09:23:03;3.80;99.90
27633;DHT22;15046;50.930;13.334;2023-02-15T09:25:29;4.00;99.90
27633;DHT22;15046;50.930;13.334;2023-02-15T09:27:55;4.20;99.90
27633;DHT22;15046;50.930;13.334;2023-02-15T09:30:20;4.40;99.90
27633;DHT22;15046;50.930;13.334;2023-02-15T09:32:47;4.60;99.90
27633;DHT22;15046;50.930;13.334;2023-02-15T09:35:13;4.90;99.90
27633;DHT22;15046;50.930;13.334;2023-02-15T09:37:39;5.10;99.90
27633;DHT22;15046;50.930;13.334;2023-02-15T09:40:05;5.40;99.90
27633;DHT22;15046;50.930;13.334;2023-02-15T09:48:16;6.20;99.90
27633;DHT22;15046;50.930;13.334;2023-02-15T09:54:06;7.40;99.90
27633;DHT22;15046;50.930;13.334;2023-02-15T09:56:43;9.10;99.90
27633;DHT22;15046;50.930;13.334;2023-02-15T09:59:50;10.80;99.90
27633;DHT22;15046;50.930;13.334;2023-02-15T10:02:27;12.70;99.90
27633;DHT22;15046;50.930;13.334;2023-02-15T10:05:36;14.30;99.90
27633;DHT22;15046;50.930;13.334;2023-02-15T10:13:43;18.50;89.20
27633;DHT22;15046;50.930;13.334;2023-02-15T10:16:33;19.60;81.00
27633;DHT22;15046;50.930;13.334;2023-02-15T10:19:16;20.40;77.30
27633;DHT22;15046;50.930;13.334;2023-02-15T10:27:20;22.20;67.00
27633;DHT22;15046;50.930;13.334;2023-02-15T10:30:10;22.80;64.30
27633;DHT22;15046;50.930;13.334;2023-02-15T10:35:22;23.90;60.30
27633;DHT22;15046;50.930;13.334;2023-02-15T10:41:21;24.80;57.40
27633;DHT22;15046;50.930;13.334;2023-02-15T10:47:04;25.40;55.50
27633;DHT22;15046;50.930;13.334;2023-02-15T10:52:31;25.90;53.50
27633;DHT22;15046;50.930;13.334;2023-02-15T10:58:10;26.30;52.40
27633;DHT22;15046;50.930;13.334;2023-02-15T11:01:32;26.60;52.60
27633;DHT22;15046;50.930;13.334;2023-02-15T11:06:27;26.90;52.00
27633;DHT22;15046;50.930;13.334;2023-02-15T11:09:05;27.10;50.70
27633;DHT22;15046;50.930;13.334;2023-02-15T11:11:37;27.30;49.60
27633;DHT22;15046;50.930;13.334;2023-02-15T11:14:31;27.70;49.00
27633;DHT22;15046;50.930;13.334;2023-02-15T11:17:08;28.00;49.20
27633;DHT22;15046;50.930;13.334;2023-02-15T11:19:45;28.40;49.60
27633;DHT22;15046;50.930;13.334;2023-02-15T11:22:14;28.70;47.90
27633;DHT22;15046;50.930;13.334;2023-02-15T11:24:43;28.80;50.50
27633;DHT22;15046;50.930;13.334;2023-02-15T11:27:16;28.70;46.40
27633;DHT22;15046;50.930;13.334;2023-02-15T11:32:31;28.80;43.40
27633;DHT22;15046;50.930;13.334;2023-02-15T11:35:06;29.00;43.30
27633;DHT22;15046;50.930;13.334;2023-02-15T11:38:06;28.90;41.10
27633;DHT22;15046;50.930;13.334;2023-02-15T11:41:03;29.10;40.60
27633;DHT22;15046;50.930;13.334;2023-02-15T11:43:39;29.10;39.80
27633;DHT22;15046;50.930;13.334;2023-02-15T11:46:08;29.20;37.80
27633;DHT22;15046;50.930;13.334;2023-02-15T11:48:36;29.40;37.40
27633;DHT22;15046;50.930;13.334;2023-02-15T11:51:02;29.80;36.20
27633;DHT22;15046;50.930;13.334;2023-02-15T11:53:32;30.00;35.80
27633;DHT22;15046;50.930;13.334;2023-02-15T11:55:59;30.20;35.60
27633;DHT22;15046;50.930;13.334;2023-02-15T12:01:37;29.00;34.80
27633;DHT22;15046;50.930;13.334;2023-02-15T12:04:20;28.80;35.30
27633;DHT22;15046;50.930;13.334;2023-02-15T12:06:59;28.80;35.50
27633;DHT22;15046;50.930;13.334;2023-02-15T12:09:38;28.70;36.60
27633;DHT22;15046;50.930;13.334;2023-02-15T12:12:28;29.10;40.00
27633;DHT22;15046;50.930;13.334;2023-02-15T12:14:56;29.70;38.10
27633;DHT22;15046;50.930;13.334;2023-02-15T12:17:34;30.20;37.40
27633;DHT22;15046;50.930;13.334;2023-02-15T12:20:19;30.20;35.70
27633;DHT22;15046;50.930;13.334;2023-02-15T12:23:00;30.00;35.40
27633;DHT22;15046;50.930;13.334;2023-02-15T12:25:40;29.70;35.30
27633;DHT22;15046;50.930;13.334;2023-02-15T12:28:31;29.70;35.30
27633;DHT22;15046;50.930;13.334;2023-02-15T12:30:58;29.70;35.30
27633;DHT22;15046;50.930;13.334;2023-02-15T12:33:35;29.80;36.00
27633;DHT22;15046;50.930;13.334;2023-02-15T12:36:29;29.90;35.40
27633;DHT22;15046;50.930;13.334;2023-02-15T12:41:45;30.30;35.80
27633;DHT22;15046;50.930;13.334;2023-02-15T12:44:21;30.20;36.10
27633;DHT22;15046;50.930;13.334;2023-02-15T12:46:57;30.50;36.40
27633;DHT22;15046;50.930;13.334;2023-02-15T12:49:23;30.70;35.80
27633;DHT22;15046;50.930;13.334;2023-02-15T12:51:55;30.80;36.90
27633;DHT22;15046;50.930;13.334;2023-02-15T12:54:33;31.10;36.10
27633;DHT22;15046;50.930;13.334;2023-02-15T12:57:31;31.50;35.70
27633;DHT22;15046;50.930;13.334;2023-02-15T13:00:05;31.40;36.00
27633;DHT22;15046;50.930;13.334;2023-02-15T13:02:36;31.10;36.00
27633;DHT22;15046;50.930;13.334;2023-02-15T13:08:04;30.60;36.00
27633;DHT22;15046;50.930;13.334;2023-02-15T13:10:52;30.50;36.00
27633;DHT22;15046;50.930;13.334;2023-02-15T13:13:21;30.40;36.30
27633;DHT22;15046;50.930;13.334;2023-02-15T13:15:51;30.20;36.50
27633;DHT22;15046;50.930;13.334;2023-02-15T13:18:43;29.90;36.80
27633;DHT22;15046;50.930;13.334;2023-02-15T13:23:46;29.70;36.70
27633;DHT22;15046;50.930;13.334;2023-02-15T13:26:19;29.70;36.80
27633;DHT22;15046;50.930;13.334;2023-02-15T13:28:52;29.60;36.50
27633;DHT22;15046;50.930;13.334;2023-02-15T13:31:23;29.40;36.80
27633;DHT22;15046;50.930;13.334;2023-02-15T13:34:09;29.20;36.80
27633;DHT22;15046;50.930;13.334;2023-02-15T13:36:57;28.80;36.60
27633;DHT22;15046;50.930;13.334;2023-02-15T13:39:38;28.60;36.60
27633;DHT22;15046;50.930;13.334;2023-02-15T13:42:15;28.40;37.00
27633;DHT22;15046;50.930;13.334;2023-02-15T13:44:59;28.50;37.40
27633;DHT22;15046;50.930;13.334;2023-02-15T13:47:50;28.70;37.80
27633;DHT22;15046;50.930;13.334;2023-02-15T13:53:34;28.20;38.70
27633;DHT22;15046;50.930;13.334;2023-02-15T14:02:15;27.40;39.90
27633;DHT22;15046;50.930;13.334;2023-02-15T14:10:38;26.50;40.90
27633;DHT22;15046;50.930;13.334;2023-02-15T14:19:13;26.60;41.10
27633;DHT22;15046;50.930;13.334;2023-02-15T14:21:52;26.40;40.90
27633;DHT22;15046;50.930;13.334;2023-02-15T14:24:37;26.60;40.60
27633;DHT22;15046;50.930;13.334;2023-02-15T14:27:07;26.70;40.30
27633;DHT22;15046;50.930;13.334;2023-02-15T14:32:11;24.00;41.90
27633;DHT22;15046;50.930;13.334;2023-02-15T14:34:46;22.60;43.70
27633;DHT22;15046;50.930;13.334;2023-02-15T14:37:18;21.40;45.30
27633;DHT22;15046;50.930;13.334;2023-02-15T14:39:56;21.10;46.50
27633;DHT22;15046;50.930;13.334;2023-02-15T14:43:20;21.50;45.90
27633;DHT22;15046;50.930;13.334;2023-02-15T14:45:52;22.00;45.80
27633;DHT22;15046;50.930;13.334;2023-02-15T14:48:53;23.00;44.80
27633;DHT22;15046;50.930;13.334;2023-02-15T14:56:42;24.80;43.40
27633;DHT22;15046;50.930;13.334;2023-02-15T14:59:16;25.00;42.70
27633;DHT22;15046;50.930;13.334;2023-02-15T15:04:39;24.90;42.00
27633;DHT22;15046;50.930;13.334;2023-02-15T15:07:20;24.10;42.40
27633;DHT22;15046;50.930;13.334;2023-02-15T15:10:34;23.00;43.20
27633;DHT22;15046;50.930;13.334;2023-02-15T15:16:23;20.40;46.20
27633;DHT22;15046;50.930;13.334;2023-02-15T15:18:47;19.30;47.40
27633;DHT22;15046;50.930;13.334;2023-02-15T15:36:12;14.90;54.30
27633;DHT22;15046;50.930;13.334;2023-02-15T15:38:50;14.60;55.10
27633;DHT22;15046;50.930;13.334;2023-02-15T15:41:42;14.20;55.70
27633;DHT22;15046;50.930;13.334;2023-02-15T15:44:34;13.90;56.60
27633;DHT22;15046;50.930;13.334;2023-02-15T15:49:58;13.20;57.80
27633;DHT22;15046;50.930;13.334;2023-02-15T15:52:25;12.90;58.40
27633;DHT22;15046;50.930;13.334;2023-02-15T15:54:56;12.60;59.20
27633;DHT22;15046;50.930;13.334;2023-02-15T15:59:53;12.40;59.30
27633;DHT22;15046;50.930;13.334;2023-02-15T16:02:20;12.30;59.50
27633;DHT22;15046;50.930;13.334;2023-02-15T16:04:46;12.20;59.80
27633;DHT22;15046;50.930;13.334;2023-02-15T16:09:58;12.00;60.30
27633;DHT22;15046;50.930;13.334;2023-02-15T16:12:26;11.90;60.40
27633;DHT22;15046;50.930;13.334;2023-02-15T16:14:54;11.80;60.70
27633;DHT22;15046;50.930;13.334;2023-02-15T16:17:26;11.70;60.90
27633;DHT22;15046;50.930;13.334;2023-02-15T16:22:49;11.50;60.20
27633;DHT22;15046;50.930;13.334;2023-02-15T16:28:16;11.30;59.60
27633;DHT22;15046;50.930;13.334;2023-02-15T16:30:44;11.10;59.90
27633;DHT22;15046;50.930;13.334;2023-02-15T16:33:15;10.90;60.10
27633;DHT22;15046;50.930;13.334;2023-02-15T16:35:56;10.70;60.60
27633;DHT22;15046;50.930;13.334;2023-02-15T16:41:15;10.30;61.70
27633;DHT22;15046;50.930;13.334;2023-02-15T16:43:45;10.20;62.00
27633;DHT22;15046;50.930;13.334;2023-02-15T16:46:17;10.10;62.10
27633;DHT22;15046;50.930;13.334;2023-02-15T16:48:46;10.00;62.40
27633;DHT22;15046;50.930;13.334;2023-02-15T16:51:26;9.80;62.60
27633;DHT22;15046;50.930;13.334;2023-02-15T16:53:54;9.70;63.10
27633;DHT22;15046;50.930;13.334;2023-02-15T16:56:26;9.60;63.50
27633;DHT22;15046;50.930;13.334;2023-02-15T16:58:55;9.50;63.90
27633;DHT22;15046;50.930;13.334;2023-02-15T17:01:29;9.40;64.00
27633;DHT22;15046;50.930;13.334;2023-02-15T17:07:20;9.30;64.80
27633;DHT22;15046;50.930;13.334;2023-02-15T17:09:56;9.10;64.90
27633;DHT22;15046;50.930;13.334;2023-02-15T17:15:32;8.70;65.60
27633;DHT22;15046;50.930;13.334;2023-02-15T17:18:19;8.40;66.40
27633;DHT22;15046;50.930;13.334;2023-02-15T17:20:48;8.30;66.80
27633;DHT22;15046;50.930;13.334;2023-02-15T17:23:32;8.30;67.00
27633;DHT22;15046;50.930;13.334;2023-02-15T17:26:01;8.40;67.00
27633;DHT22;15046;50.930;13.334;2023-02-15T17:28:30;8.40;67.00
27633;DHT22;15046;50.930;13.334;2023-02-15T17:30:57;8.40;67.00
27633;DHT22;15046;50.930;13.334;2023-02-15T17:36:09;8.10;67.30
27633;DHT22;15046;50.930;13.334;2023-02-15T17:41:37;7.80;68.30
27633;DHT22;15046;50.930;13.334;2023-02-15T17:44:03;7.60;68.60
27633;DHT22;15046;50.930;13.334;2023-02-15T17:46:33;7.60;69.10
27633;DHT22;15046;50.930;13.334;2023-02-15T17:49:00;7.50;69.30
27633;DHT22;15046;50.930;13.334;2023-02-15T17:51:26;7.50;69.50
27633;DHT22;15046;50.930;13.334;2023-02-15T17:53:52;7.50;69.70
27633;DHT22;15046;50.930;13.334;2023-02-15T17:56:37;7.40;69.70
27633;DHT22;15046;50.930;13.334;2023-02-15T17:59:04;7.40;69.90
27633;DHT22;15046;50.930;13.334;2023-02-15T18:01:37;7.20;70.00
27633;DHT22;15046;50.930;13.334;2023-02-15T18:04:24;7.10;70.10
27633;DHT22;15046;50.930;13.334;2023-02-15T18:07:16;7.00;70.50
27633;DHT22;15046;50.930;13.334;2023-02-15T18:10:03;6.90;70.70
27633;DHT22;15046;50.930;13.334;2023-02-15T18:12:47;6.80;71.10
27633;DHT22;15046;50.930;13.334;2023-02-15T18:15:13;6.70;71.40
27633;DHT22;15046;50.930;13.334;2023-02-15T18:17:44;6.80;71.20
27633;DHT22;15046;50.930;13.334;2023-02-15T18:20:32;6.70;71.40
27633;DHT22;15046;50.930;13.334;2023-02-15T18:22:59;6.70;71.60
27633;DHT22;15046;50.930;13.334;2023-02-15T18:25:26;6.70;71.60
27633;DHT22;15046;50.930;13.334;2023-02-15T18:27:52;6.80;71.60
27633;DHT22;15046;50.930;13.334;2023-02-15T18:30:20;6.70;71.70
27633;DHT22;15046;50.930;13.334;2023-02-15T18:32:48;6.70;71.80
27633;DHT22;15046;50.930;13.334;2023-02-15T18:35:21;6.60;72.00
27633;DHT22;15046;50.930;13.334;2023-02-15T18:37:47;6.50;72.30